sensor_id;sensor_type;location;lat;lon;timestamp;temperature;humidity
4312;DHT22;2169;49.086;9.284;2023-11-19T00:00:47;8.90;74.10
4312;DHT22;2169;49.086;9.284;2023-11-19T00:03:14;8.90;74.20
4312;DHT22;2169;49.086;9.284;2023-11-19T00:05:41;9.00;74.30
4312;DHT22;2169;49.086;9.284;2023-11-19T00:08:09;9.00;74.30
4312;DHT22;2169;49.086;9.284;2023-11-19T00:10:36;9.00;74.40
4312;DHT22;2169;49.086;9.284;2023-11-19T00:13:03;9.00;74.40
4312;DHT22;2169;49.086;9.284;2023-11-19T00:15:29;9.00;74.40
4312;DHT22;2169;49.086;9.284;2023-11-19T00:17:56;9.00;74.50
4312;DHT22;2169;49.086;9.284;2023-11-19T00:20:23;9.00;74.50
4312;DHT22;2169;49.086;9.284;2023-11-19T00:22:50;9.00;74.60
4312;DHT22;2169;49.086;9.284;2023-11-19T00:25:19;9.00;74.60
4312;DHT22;2169;49.086;9.284;2023-11-19T00:27:47;9.00;74.70
4312;DHT22;2169;49.086;9.284;2023-11-19T00:30:14;9.00;74.80
4312;DHT22;2169;49.086;9.284;2023-11-19T00:32:41;9.00;74.80
4312;DHT22;2169;49.086;9.284;2023-11-19T00:35:08;9.00;74.90
4312;DHT22;2169;49.086;9.284;2023-11-19T00:37:36;9.00;75.00
4312;DHT22;2169;49.086;9.284;2023-11-19T00:40:04;9.10;75.10
4312;DHT22;2169;49.086;9.284;2023-11-19T00:42:32;9.10;75.10
4312;DHT22;2169;49.086;9.284;2023-11-19T00:44:59;9.10;75.20
4312;DHT22;2169;49.086;9.284;2023-11-19T00:47:26;9.10;75.20
4312;DHT22;2169;49.086;9.284;2023-11-19T00:49:53;9.10;75.30
4312;DHT22;2169;49.086;9.284;2023-11-19T00:52:20;9.10;75.30
4312;DHT22;2169;49.086;9.284;2023-11-19T00:54:47;9.10;75.40
4312;DHT22;2169;49.086;9.284;2023-11-19T00:57:14;9.10;75.40
4312;DHT22;2169;49.086;9.284;2023-11-19T00:59:43;9.10;75.50
4312;DHT22;2169;49.086;9.284;2023-11-19T01:02:09;9.20;75.60
4312;DHT22;2169;49.086;9.284;2023-11-19T01:04:36;9.20;75.70
4312;DHT22;2169;49.086;9.284;2023-11-19T01:07:04;9.20;75.80
4312;DHT22;2169;49.086;9.284;2023-11-19T01:09:31;9.20;75.90
4312;DHT22;2169;49.086;9.284;2023-11-19T01:12:00;9.20;75.90
4312;DHT22;2169;49.086;9.284;2023-11-19T01:14:27;9.20;76.00
4312;DHT22;2169;49.086;9.284;2023-11-19T01:16:55;9.20;76.10
4312;DHT22;2169;49.086;9.284;2023-11-19T01:19:22;9.20;76.20
4312;DHT22;2169;49.086;9.284;2023-11-19T01:21:49;9.30;76.30
4312;DHT22;2169;49.086;9.284;2023-11-19T01:24:16;9.30;76.40
4312;DHT22;2169;49.086;9.284;2023-11-19T01:26:43;9.30;76.40
4312;DHT22;2169;49.086;9.284;2023-11-19T01:29:11;9.30;76.50
4312;DHT22;2169;49.086;9.284;2023-11-19T01:31:39;9.30;76.60
4312;DHT22;2169;49.086;9.284;2023-11-19T01:34:06;9.30;76.60
4312;DHT22;2169;49.086;9.284;2023-11-19T01:36:33;9.30;76.70
4312;DHT22;2169;49.086;9.284;2023-11-19T01:39:00;9.30;76.70
4312;DHT22;2169;49.086;9.284;2023-11-19T01:41:27;9.40;76.90
4312;DHT22;2169;49.086;9.284;2023-11-19T01:43:53;9.40;77.00
4312;DHT22;2169;49.086;9.284;2023-11-19T01:46:20;9.40;77.00
4312;DHT22;2169;49.086;9.284;2023-11-19T01:48:47;9.40;77.00
4312;DHT22;2169;49.086;9.284;2023-11-19T01:51:16;9.40;77.00
4312;DHT22;2169;49.086;9.284;2023-11-19T01:53:43;9.50;77.20
4312;DHT22;2169;49.086;9.284;2023-11-19T01:56:13;9.50;77.20
4312;DHT22;2169;49.086;9.284;2023-11-19T01:58:42;9.50;77.20
4312;DHT22;2169;49.086;9.284;2023-11-19T02:01:09;9.50;77.30
4312;DHT22;2169;49.086;9.284;2023-11-19T02:03:36;9.50;77.30
4312;DHT22;2169;49.086;9.284;2023-11-19T02:06:04;9.50;77.40
4312;DHT22;2169;49.086;9.284;2023-11-19T02:08:33;9.50;77.40
4312;DHT22;2169;49.086;9.284;2023-11-19T02:11:00;9.50;77.40
4312;DHT22;2169;49.086;9.284;2023-11-19T02:13:27;9.50;77.50
4312;DHT22;2169;49.086;9.284;2023-11-19T02:15:55;9.60;77.60
4312;DHT22;2169;49.086;9.284;2023-11-19T02:18:23;9.60;77.60
4312;DHT22;2169;49.086;9.284;2023-11-19T02:20:53;9.60;77.70
4312;DHT22;2169;49.086;9.284;2023-11-19T02:23:20;9.60;77.70
4312;DHT22;2169;49.086;9.284;2023-11-19T02:26:06;9.60;77.70
4312;DHT22;2169;49.086;9.284;2023-11-19T02:28:37;9.60;77.80
4312;DHT22;2169;49.086;9.284;2023-11-19T02:31:05;9.60;77.80
4312;DHT22;2169;49.086;9.284;2023-11-19T02:33:35;9.60;77.80
4312;DHT22;2169;49.086;9.284;2023-11-19T02:36:02;9.60;77.80
4312;DHT22;2169;49.086;9.284;2023-11-19T02:38:29;9.60;77.80
4312;DHT22;2169;49.086;9.284;2023-11-19T02:40:56;9.70;78.00
4312;DHT22;2169;49.086;9.284;2023-11-19T02:43:23;9.70;78.00
4312;DHT22;2169;49.086;9.284;2023-11-19T02:45:51;9.70;78.00
4312;DHT22;2169;49.086;9.284;2023-11-19T02:48:21;9.70;78.00
4312;DHT22;2169;49.086;9.284;2023-11-19T02:50:47;9.70;78.00
4312;DHT22;2169;49.086;9.284;2023-11-19T02:53:14;9.70;78.10
4312;DHT22;2169;49.086;9.284;2023-11-19T02:55:42;9.70;78.10
4312;DHT22;2169;49.086;9.284;2023-11-19T02:58:13;9.70;78.10
4312;DHT22;2169;49.086;9.284;2023-11-19T03:00:49;9.70;78.20
4312;DHT22;2169;49.086;9.284;2023-11-19T03:03:23;9.70;78.20
4312;DHT22;2169;49.086;9.284;2023-11-19T03:05:56;9.80;78.30
4312;DHT22;2169;49.086;9.284;2023-11-19T03:08:23;9.80;78.30
4312;DHT22;2169;49.086;9.284;2023-11-19T03:10:50;9.80;78.30
4312;DHT22;2169;49.086;9.284;2023-11-19T03:13:17;9.80;78.30
4312;DHT22;2169;49.086;9.284;2023-11-19T03:15:43;9.80;78.40
4312;DHT22;2169;49.086;9.284;2023-11-19T03:18:11;9.80;78.40
4312;DHT22;2169;49.086;9.284;2023-11-19T03:20:39;9.80;78.40
4312;DHT22;2169;49.086;9.284;2023-11-19T03:23:06;9.80;78.50
4312;DHT22;2169;49.086;9.284;2023-11-19T03:25:33;9.80;78.50
4312;DHT22;2169;49.086;9.284;2023-11-19T03:28:00;9.80;78.50
4312;DHT22;2169;49.086;9.284;2023-11-19T03:30:27;9.80;78.60
4312;DHT22;2169;49.086;9.284;2023-11-19T03:32:54;9.80;78.60
4312;DHT22;2169;49.086;9.284;2023-11-19T03:35:21;9.80;78.70
4312;DHT22;2169;49.086;9.284;2023-11-19T03:37:49;9.80;78.70
4312;DHT22;2169;49.086;9.284;2023-11-19T03:40:16;9.90;78.90
4312;DHT22;2169;49.086;9.284;2023-11-19T03:42:44;9.90;78.90
4312;DHT22;2169;49.086;9.284;2023-11-19T03:45:11;9.90;78.90
4312;DHT22;2169;49.086;9.284;2023-11-19T03:47:38;9.90;79.00
4312;DHT22;2169;49.086;9.284;2023-11-19T03:50:06;9.90;79.10
4312;DHT22;2169;49.086;9.284;2023-11-19T03:52:33;9.90;79.10
4312;DHT22;2169;49.086;9.284;2023-11-19T03:55:01;9.90;79.10
4312;DHT22;2169;49.086;9.284;2023-11-19T03:57:29;9.90;79.10
4312;DHT22;2169;49.086;9.284;2023-11-19T03:59:55;10.00;78.20
4312;DHT22;2169;49.086;9.284;2023-11-19T04:02:24;10.00;78.20
4312;DHT22;2169;49.086;9.284;2023-11-19T04:04:53;10.00;78.30
4312;DHT22;2169;49.086;9.284;2023-11-19T04:07:20;10.00;78.30
4312;DHT22;2169;49.086;9.284;2023-11-19T04:09:47;10.00;78.30
4312;DHT22;2169;49.086;9.284;2023-11-19T04:12:15;10.00;78.40
4312;DHT22;2169;49.086;9.284;2023-11-19T04:14:41;10.00;78.40
4312;DHT22;2169;49.086;9.284;2023-11-19T04:17:09;10.10;78.50
4312;DHT22;2169;49.086;9.284;2023-11-19T04:19:36;10.10;78.60
4312;DHT22;2169;49.086;9.284;2023-11-19T04:22:03;10.10;78.60
4312;DHT22;2169;49.086;9.284;2023-11-19T04:24:30;10.10;78.60
4312;DHT22;2169;49.086;9.284;2023-11-19T04:26:57;10.10;78.60
4312;DHT22;2169;49.086;9.284;2023-11-19T04:29:25;10.10;78.70
4312;DHT22;2169;49.086;9.284;2023-11-19T04:31:52;10.10;78.70
4312;DHT22;2169;49.086;9.284;2023-11-19T04:34:18;10.20;78.80
4312;DHT22;2169;49.086;9.284;2023-11-19T04:36:45;10.20;78.90
4312;DHT22;2169;49.086;9.284;2023-11-19T04:39:12;10.20;78.90
4312;DHT22;2169;49.086;9.284;2023-11-19T04:41:47;10.20;79.00
4312;DHT22;2169;49.086;9.284;2023-11-19T04:44:14;10.20;79.10
4312;DHT22;2169;49.086;9.284;2023-11-19T04:46:42;10.20;79.20
4312;DHT22;2169;49.086;9.284;2023-11-19T04:49:09;10.30;79.30
4312;DHT22;2169;49.086;9.284;2023-11-19T04:51:38;10.30;79.50
4312;DHT22;2169;49.086;9.284;2023-11-19T04:54:06;10.30;79.50
4312;DHT22;2169;49.086;9.284;2023-11-19T04:56:34;10.30;79.60
4312;DHT22;2169;49.086;9.284;2023-11-19T04:59:00;10.40;79.70
4312;DHT22;2169;49.086;9.284;2023-11-19T05:01:27;10.40;79.80
4312;DHT22;2169;49.086;9.284;2023-11-19T05:03:56;10.40;79.80
4312;DHT22;2169;49.086;9.284;2023-11-19T05:06:26;10.40;79.90
4312;DHT22;2169;49.086;9.284;2023-11-19T05:08:53;10.40;80.00
4312;DHT22;2169;49.086;9.284;2023-11-19T05:11:20;10.50;80.20
4312;DHT22;2169;49.086;9.284;2023-11-19T05:13:47;10.50;80.20
4312;DHT22;2169;49.086;9.284;2023-11-19T05:16:14;10.50;80.30
4312;DHT22;2169;49.086;9.284;2023-11-19T05:18:41;10.50;80.40
4312;DHT22;2169;49.086;9.284;2023-11-19T05:21:09;10.50;80.50
4312;DHT22;2169;49.086;9.284;2023-11-19T05:23:35;10.50;80.50
4312;DHT22;2169;49.086;9.284;2023-11-19T05:26:02;10.60;80.60
4312;DHT22;2169;49.086;9.284;2023-11-19T05:28:29;10.60;80.70
4312;DHT22;2169;49.086;9.284;2023-11-19T05:30:57;10.60;80.70
4312;DHT22;2169;49.086;9.284;2023-11-19T05:33:24;10.60;80.70
4312;DHT22;2169;49.086;9.284;2023-11-19T05:35:51;10.60;80.70
4312;DHT22;2169;49.086;9.284;2023-11-19T05:38:19;10.70;80.90
4312;DHT22;2169;49.086;9.284;2023-11-19T05:40:46;10.70;80.90
4312;DHT22;2169;49.086;9.284;2023-11-19T05:43:14;10.70;80.90
4312;DHT22;2169;49.086;9.284;2023-11-19T05:45:42;10.70;80.90
4312;DHT22;2169;49.086;9.284;2023-11-19T05:48:09;10.80;81.00
4312;DHT22;2169;49.086;9.284;2023-11-19T05:50:36;10.80;81.00
4312;DHT22;2169;49.086;9.284;2023-11-19T05:53:02;10.80;81.10
4312;DHT22;2169;49.086;9.284;2023-11-19T05:55:33;10.80;81.10
4312;DHT22;2169;49.086;9.284;2023-11-19T05:58:01;10.90;81.20
4312;DHT22;2169;49.086;9.284;2023-11-19T06:00:28;10.90;81.20
4312;DHT22;2169;49.086;9.284;2023-11-19T06:02:56;10.90;81.20
4312;DHT22;2169;49.086;9.284;2023-11-19T06:05:22;10.90;81.20
4312;DHT22;2169;49.086;9.284;2023-11-19T06:07:49;10.90;81.20
4312;DHT22;2169;49.086;9.284;2023-11-19T06:10:16;10.90;81.20
4312;DHT22;2169;49.086;9.284;2023-11-19T06:12:46;11.00;81.30
4312;DHT22;2169;49.086;9.284;2023-11-19T06:15:13;11.00;81.40
4312;DHT22;2169;49.086;9.284;2023-11-19T06:17:40;11.00;81.40
4312;DHT22;2169;49.086;9.284;2023-11-19T06:20:07;11.00;82.00
4312;DHT22;2169;49.086;9.284;2023-11-19T06:22:34;11.00;81.40
4312;DHT22;2169;49.086;9.284;2023-11-19T06:25:01;11.00;81.40
4312;DHT22;2169;49.086;9.284;2023-11-19T06:27:32;11.00;81.40
4312;DHT22;2169;49.086;9.284;2023-11-19T06:30:00;11.00;81.50
4312;DHT22;2169;49.086;9.284;2023-11-19T06:32:27;11.10;81.60
4312;DHT22;2169;49.086;9.284;2023-11-19T06:34:54;11.10;81.60
4312;DHT22;2169;49.086;9.284;2023-11-19T06:37:22;11.10;81.70
4312;DHT22;2169;49.086;9.284;2023-11-19T06:39:48;11.10;81.70
4312;DHT22;2169;49.086;9.284;2023-11-19T06:42:15;11.20;81.80
4312;DHT22;2169;49.086;9.284;2023-11-19T06:44:42;11.20;81.90
4312;DHT22;2169;49.086;9.284;2023-11-19T06:47:10;11.20;81.90
4312;DHT22;2169;49.086;9.284;2023-11-19T06:49:37;11.20;81.90
4312;DHT22;2169;49.086;9.284;2023-11-19T06:52:04;11.30;82.10
4312;DHT22;2169;49.086;9.284;2023-11-19T06:54:31;11.30;82.20
4312;DHT22;2169;49.086;9.284;2023-11-19T06:56:58;11.40;82.30
4312;DHT22;2169;49.086;9.284;2023-11-19T06:59:25;11.40;82.30
4312;DHT22;2169;49.086;9.284;2023-11-19T07:01:52;11.70;83.10
4312;DHT22;2169;49.086;9.284;2023-11-19T07:04:20;11.60;83.00
4312;DHT22;2169;49.086;9.284;2023-11-19T07:06:46;11.60;83.00
4312;DHT22;2169;49.086;9.284;2023-11-19T07:09:13;11.60;83.10
4312;DHT22;2169;49.086;9.284;2023-11-19T07:11:41;11.60;83.10
4312;DHT22;2169;49.086;9.284;2023-11-19T07:14:09;11.60;83.10
4312;DHT22;2169;49.086;9.284;2023-11-19T07:16:37;11.60;83.10
4312;DHT22;2169;49.086;9.284;2023-11-19T07:19:04;11.60;83.10
4312;DHT22;2169;49.086;9.284;2023-11-19T07:21:33;11.60;83.10
4312;DHT22;2169;49.086;9.284;2023-11-19T07:23:59;11.70;83.20
4312;DHT22;2169;49.086;9.284;2023-11-19T07:26:27;11.70;83.30
4312;DHT22;2169;49.086;9.284;2023-11-19T07:28:53;11.70;83.30
4312;DHT22;2169;49.086;9.284;2023-11-19T07:31:21;11.80;83.50
4312;DHT22;2169;49.086;9.284;2023-11-19T07:33:49;11.80;83.50
4312;DHT22;2169;49.086;9.284;2023-11-19T07:36:16;11.80;83.60
4312;DHT22;2169;49.086;9.284;2023-11-19T07:38:45;11.80;83.60
4312;DHT22;2169;49.086;9.284;2023-11-19T07:41:12;11.90;83.70
4312;DHT22;2169;49.086;9.284;2023-11-19T07:43:39;11.90;83.80
4312;DHT22;2169;49.086;9.284;2023-11-19T07:46:10;11.90;83.80
4312;DHT22;2169;49.086;9.284;2023-11-19T07:48:38;11.90;83.80
4312;DHT22;2169;49.086;9.284;2023-11-19T07:51:05;11.90;83.80
4312;DHT22;2169;49.086;9.284;2023-11-19T07:53:32;12.00;83.90
4312;DHT22;2169;49.086;9.284;2023-11-19T07:56:00;12.00;83.90
4312;DHT22;2169;49.086;9.284;2023-11-19T07:58:27;12.00;83.90
4312;DHT22;2169;49.086;9.284;2023-11-19T08:00:54;12.00;83.90
4312;DHT22;2169;49.086;9.284;2023-11-19T08:03:21;12.10;84.00
4312;DHT22;2169;49.086;9.284;2023-11-19T08:05:48;12.10;84.00
4312;DHT22;2169;49.086;9.284;2023-11-19T08:08:15;12.10;84.10
4312;DHT22;2169;49.086;9.284;2023-11-19T08:10:42;12.10;84.10
4312;DHT22;2169;49.086;9.284;2023-11-19T08:13:11;12.10;84.10
4312;DHT22;2169;49.086;9.284;2023-11-19T08:15:38;12.10;84.10
4312;DHT22;2169;49.086;9.284;2023-11-19T08:18:05;12.20;84.20
4312;DHT22;2169;49.086;9.284;2023-11-19T08:20:32;12.20;84.20
4312;DHT22;2169;49.086;9.284;2023-11-19T08:23:00;12.20;84.20
4312;DHT22;2169;49.086;9.284;2023-11-19T08:25:26;12.20;84.20
4312;DHT22;2169;49.086;9.284;2023-11-19T08:27:53;12.20;84.30
4312;DHT22;2169;49.086;9.284;2023-11-19T08:30:21;12.20;84.30
4312;DHT22;2169;49.086;9.284;2023-11-19T08:32:48;12.20;84.30
4312;DHT22;2169;49.086;9.284;2023-11-19T08:35:15;12.20;84.40
4312;DHT22;2169;49.086;9.284;2023-11-19T08:37:42;12.20;84.50
4312;DHT22;2169;49.086;9.284;2023-11-19T08:40:11;12.30;84.60
4312;DHT22;2169;49.086;9.284;2023-11-19T08:42:38;12.30;84.70
4312;DHT22;2169;49.086;9.284;2023-11-19T08:45:05;12.30;84.70
4312;DHT22;2169;49.086;9.284;2023-11-19T08:47:34;12.30;84.80
4312;DHT22;2169;49.086;9.284;2023-11-19T08:50:00;12.40;85.00
4312;DHT22;2169;49.086;9.284;2023-11-19T08:52:27;12.40;84.90
4312;DHT22;2169;49.086;9.284;2023-11-19T08:54:54;12.40;84.90
4312;DHT22;2169;49.086;9.284;2023-11-19T08:57:21;12.40;84.90
4312;DHT22;2169;49.086;9.284;2023-11-19T08:59:48;12.50;85.00
4312;DHT22;2169;49.086;9.284;2023-11-19T09:02:14;12.50;85.00
4312;DHT22;2169;49.086;9.284;2023-11-19T09:04:43;12.50;85.00
4312;DHT22;2169;49.086;9.284;2023-11-19T09:07:10;12.50;85.00
4312;DHT22;2169;49.086;9.284;2023-11-19T09:09:36;12.60;85.20
4312;DHT22;2169;49.086;9.284;2023-11-19T09:12:03;12.60;85.20
4312;DHT22;2169;49.086;9.284;2023-11-19T09:14:30;12.60;85.20
4312;DHT22;2169;49.086;9.284;2023-11-19T09:16:57;12.70;85.40
4312;DHT22;2169;49.086;9.284;2023-11-19T09:19:24;12.70;85.40
4312;DHT22;2169;49.086;9.284;2023-11-19T09:21:53;12.70;85.40
4312;DHT22;2169;49.086;9.284;2023-11-19T09:24:20;12.80;85.50
4312;DHT22;2169;49.086;9.284;2023-11-19T09:26:46;12.80;85.50
4312;DHT22;2169;49.086;9.284;2023-11-19T09:29:13;12.90;85.60
4312;DHT22;2169;49.086;9.284;2023-11-19T09:31:40;12.90;85.60
4312;DHT22;2169;49.086;9.284;2023-11-19T09:34:07;13.00;85.70
4312;DHT22;2169;49.086;9.284;2023-11-19T09:36:34;13.00;85.60
4312;DHT22;2169;49.086;9.284;2023-11-19T09:39:02;13.00;85.60
4312;DHT22;2169;49.086;9.284;2023-11-19T09:41:30;13.10;85.60
4312;DHT22;2169;49.086;9.284;2023-11-19T09:43:57;13.10;85.60
4312;DHT22;2169;49.086;9.284;2023-11-19T09:46:25;13.20;85.60
4312;DHT22;2169;49.086;9.284;2023-11-19T09:48:53;13.20;85.40
4312;DHT22;2169;49.086;9.284;2023-11-19T09:51:21;13.20;85.30
4312;DHT22;2169;49.086;9.284;2023-11-19T09:53:48;13.30;85.20
4312;DHT22;2169;49.086;9.284;2023-11-19T09:56:17;13.30;85.10
4312;DHT22;2169;49.086;9.284;2023-11-19T09:58:44;13.30;84.90
4312;DHT22;2169;49.086;9.284;2023-11-19T10:01:12;13.30;84.70
4312;DHT22;2169;49.086;9.284;2023-11-19T10:03:40;13.40;84.60
4312;DHT22;2169;49.086;9.284;2023-11-19T10:06:09;13.40;84.40
4312;DHT22;2169;49.086;9.284;2023-11-19T10:08:37;13.40;84.20
4312;DHT22;2169;49.086;9.284;2023-11-19T10:11:05;13.50;84.20
4312;DHT22;2169;49.086;9.284;2023-11-19T10:13:35;13.50;84.10
4312;DHT22;2169;49.086;9.284;2023-11-19T10:16:04;13.50;83.80
4312;DHT22;2169;49.086;9.284;2023-11-19T10:18:33;13.50;84.30
4312;DHT22;2169;49.086;9.284;2023-11-19T10:21:03;13.50;83.50
4312;DHT22;2169;49.086;9.284;2023-11-19T10:23:31;13.60;83.30
4312;DHT22;2169;49.086;9.284;2023-11-19T10:26:03;13.60;83.20
4312;DHT22;2169;49.086;9.284;2023-11-19T10:28:39;13.60;83.00
4312;DHT22;2169;49.086;9.284;2023-11-19T10:31:08;13.70;82.80
4312;DHT22;2169;49.086;9.284;2023-11-19T10:33:35;13.70;82.70
4312;DHT22;2169;49.086;9.284;2023-11-19T10:36:02;13.70;82.40
4312;DHT22;2169;49.086;9.284;2023-11-19T10:38:29;13.70;82.10
4312;DHT22;2169;49.086;9.284;2023-11-19T10:40:56;13.70;81.90
4312;DHT22;2169;49.086;9.284;2023-11-19T10:43:23;13.80;81.80
4312;DHT22;2169;49.086;9.284;2023-11-19T10:45:51;13.80;81.60
4312;DHT22;2169;49.086;9.284;2023-11-19T10:48:18;13.80;81.40
4312;DHT22;2169;49.086;9.284;2023-11-19T10:50:51;13.90;81.20
4312;DHT22;2169;49.086;9.284;2023-11-19T10:53:21;13.90;80.80
4312;DHT22;2169;49.086;9.284;2023-11-19T10:55:51;13.90;81.00
4312;DHT22;2169;49.086;9.284;2023-11-19T10:58:19;14.00;80.30
4312;DHT22;2169;49.086;9.284;2023-11-19T11:00:51;14.00;80.00
4312;DHT22;2169;49.086;9.284;2023-11-19T11:03:20;14.10;79.80
4312;DHT22;2169;49.086;9.284;2023-11-19T11:05:49;14.10;79.60
4312;DHT22;2169;49.086;9.284;2023-11-19T11:08:16;14.10;79.30
4312;DHT22;2169;49.086;9.284;2023-11-19T11:10:44;14.20;79.20
4312;DHT22;2169;49.086;9.284;2023-11-19T11:13:13;14.20;79.00
4312;DHT22;2169;49.086;9.284;2023-11-19T11:15:40;14.20;78.70
4312;DHT22;2169;49.086;9.284;2023-11-19T11:18:09;14.30;78.60
4312;DHT22;2169;49.086;9.284;2023-11-19T11:20:36;14.30;78.30
4312;DHT22;2169;49.086;9.284;2023-11-19T11:23:36;14.40;78.10
4312;DHT22;2169;49.086;9.284;2023-11-19T11:26:26;14.40;77.80
4312;DHT22;2169;49.086;9.284;2023-11-19T11:28:59;14.50;77.40
4312;DHT22;2169;49.086;9.284;2023-11-19T11:31:35;14.50;77.00
4312;DHT22;2169;49.086;9.284;2023-11-19T11:34:19;14.50;76.60
4312;DHT22;2169;49.086;9.284;2023-11-19T11:37:06;14.60;76.40
4312;DHT22;2169;49.086;9.284;2023-11-19T11:39:35;14.60;76.20
4312;DHT22;2169;49.086;9.284;2023-11-19T11:42:33;14.60;75.80
4312;DHT22;2169;49.086;9.284;2023-11-19T11:45:02;14.70;75.20
4312;DHT22;2169;49.086;9.284;2023-11-19T11:50:34;14.80;75.00
4312;DHT22;2169;49.086;9.284;2023-11-19T11:53:18;14.80;74.70
4312;DHT22;2169;49.086;9.284;2023-11-19T11:55:58;14.80;74.20
4312;DHT22;2169;49.086;9.284;2023-11-19T11:58:31;14.90;74.10
4312;DHT22;2169;49.086;9.284;2023-11-19T12:00:59;14.90;73.90
4312;DHT22;2169;49.086;9.284;2023-11-19T12:03:28;14.90;73.70
4312;DHT22;2169;49.086;9.284;2023-11-19T12:05:57;14.90;73.50
4312;DHT22;2169;49.086;9.284;2023-11-19T12:08:26;15.00;73.30
4312;DHT22;2169;49.086;9.284;2023-11-19T12:10:54;15.00;73.20
4312;DHT22;2169;49.086;9.284;2023-11-19T12:13:23;15.00;73.10
4312;DHT22;2169;49.086;9.284;2023-11-19T12:16:10;15.10;73.00
4312;DHT22;2169;49.086;9.284;2023-11-19T12:18:39;15.10;72.80
4312;DHT22;2169;49.086;9.284;2023-11-19T12:21:27;15.10;72.70
4312;DHT22;2169;49.086;9.284;2023-11-19T12:24:04;15.20;72.30
4312;DHT22;2169;49.086;9.284;2023-11-19T12:26:39;15.20;72.20
4312;DHT22;2169;49.086;9.284;2023-11-19T12:29:07;15.20;72.70
4312;DHT22;2169;49.086;9.284;2023-11-19T12:31:34;15.20;72.00
4312;DHT22;2169;49.086;9.284;2023-11-19T12:34:09;15.20;72.00
4312;DHT22;2169;49.086;9.284;2023-11-19T12:36:41;15.20;72.00
4312;DHT22;2169;49.086;9.284;2023-11-19T12:39:08;15.20;72.10
4312;DHT22;2169;49.086;9.284;2023-11-19T12:41:53;15.20;72.00
4312;DHT22;2169;49.086;9.284;2023-11-19T12:44:21;15.30;71.80
4312;DHT22;2169;49.086;9.284;2023-11-19T12:47:00;15.30;71.60
4312;DHT22;2169;49.086;9.284;2023-11-19T12:49:26;15.30;71.10
4312;DHT22;2169;49.086;9.284;2023-11-19T12:51:54;15.30;71.00
4312;DHT22;2169;49.086;9.284;2023-11-19T12:54:32;15.30;70.70
4312;DHT22;2169;49.086;9.284;2023-11-19T12:56:59;15.30;70.60
4312;DHT22;2169;49.086;9.284;2023-11-19T12:59:26;15.30;70.70
4312;DHT22;2169;49.086;9.284;2023-11-19T13:01:56;15.40;70.60
4312;DHT22;2169;49.086;9.284;2023-11-19T13:04:23;15.30;70.40
4312;DHT22;2169;49.086;9.284;2023-11-19T13:06:50;15.30;70.30
4312;DHT22;2169;49.086;9.284;2023-11-19T13:09:25;15.30;70.00
4312;DHT22;2169;49.086;9.284;2023-11-19T13:11:52;15.30;69.80
4312;DHT22;2169;49.086;9.284;2023-11-19T13:14:19;15.30;69.80
4312;DHT22;2169;49.086;9.284;2023-11-19T13:16:46;15.30;69.60
4312;DHT22;2169;49.086;9.284;2023-11-19T13:19:13;15.30;69.60
4312;DHT22;2169;49.086;9.284;2023-11-19T13:21:41;15.30;69.30
4312;DHT22;2169;49.086;9.284;2023-11-19T13:24:09;15.30;69.40
4312;DHT22;2169;49.086;9.284;2023-11-19T13:26:37;15.30;69.40
4312;DHT22;2169;49.086;9.284;2023-11-19T13:29:04;15.40;69.50
4312;DHT22;2169;49.086;9.284;2023-11-19T13:31:31;15.40;69.50
4312;DHT22;2169;49.086;9.284;2023-11-19T13:33:58;15.40;69.30
4312;DHT22;2169;49.086;9.284;2023-11-19T13:36:25;15.40;69.20
4312;DHT22;2169;49.086;9.284;2023-11-19T13:38:52;15.40;69.10
4312;DHT22;2169;49.086;9.284;2023-11-19T13:41:24;15.40;69.10
4312;DHT22;2169;49.086;9.284;2023-11-19T13:43:52;15.40;69.00
4312;DHT22;2169;49.086;9.284;2023-11-19T13:46:19;15.40;68.90
4312;DHT22;2169;49.086;9.284;2023-11-19T13:48:47;15.40;68.80
4312;DHT22;2169;49.086;9.284;2023-11-19T13:51:18;15.40;68.50
4312;DHT22;2169;49.086;9.284;2023-11-19T13:53:44;15.40;68.50
4312;DHT22;2169;49.086;9.284;2023-11-19T13:56:11;15.50;68.50
4312;DHT22;2169;49.086;9.284;2023-11-19T13:58:38;15.50;68.30
4312;DHT22;2169;49.086;9.284;2023-11-19T14:01:07;15.50;67.90
4312;DHT22;2169;49.086;9.284;2023-11-19T14:03:34;15.50;67.70
4312;DHT22;2169;49.086;9.284;2023-11-19T14:06:01;15.50;67.50
4312;DHT22;2169;49.086;9.284;2023-11-19T14:08:28;15.50;67.20
4312;DHT22;2169;49.086;9.284;2023-11-19T14:10:54;15.50;67.10
4312;DHT22;2169;49.086;9.284;2023-11-19T14:13:22;15.50;67.30
4312;DHT22;2169;49.086;9.284;2023-11-19T14:15:49;15.50;67.20
4312;DHT22;2169;49.086;9.284;2023-11-19T14:18:18;15.50;67.00
4312;DHT22;2169;49.086;9.284;2023-11-19T14:20:45;15.40;66.90
4312;DHT22;2169;49.086;9.284;2023-11-19T14:23:11;15.40;66.50
4312;DHT22;2169;49.086;9.284;2023-11-19T14:25:38;15.40;66.50
4312;DHT22;2169;49.086;9.284;2023-11-19T14:28:05;15.40;66.40
4312;DHT22;2169;49.086;9.284;2023-11-19T14:30:33;15.40;66.00
4312;DHT22;2169;49.086;9.284;2023-11-19T14:33:00;15.40;65.80
4312;DHT22;2169;49.086;9.284;2023-11-19T14:35:28;15.40;66.00
4312;DHT22;2169;49.086;9.284;2023-11-19T14:37:55;15.40;66.00
4312;DHT22;2169;49.086;9.284;2023-11-19T14:40:22;15.40;65.90
4312;DHT22;2169;49.086;9.284;2023-11-19T14:42:49;15.40;65.70
4312;DHT22;2169;49.086;9.284;2023-11-19T14:45:15;15.40;65.70
4312;DHT22;2169;49.086;9.284;2023-11-19T14:47:43;15.30;65.60
4312;DHT22;2169;49.086;9.284;2023-11-19T14:50:10;15.30;65.40
4312;DHT22;2169;49.086;9.284;2023-11-19T14:52:38;15.30;65.60
4312;DHT22;2169;49.086;9.284;2023-11-19T14:55:06;15.30;65.60
4312;DHT22;2169;49.086;9.284;2023-11-19T14:57:32;15.30;65.30
4312;DHT22;2169;49.086;9.284;2023-11-19T15:00:01;15.20;65.20
4312;DHT22;2169;49.086;9.284;2023-11-19T15:02:38;15.20;65.40
4312;DHT22;2169;49.086;9.284;2023-11-19T15:05:05;15.20;65.40
4312;DHT22;2169;49.086;9.284;2023-11-19T15:07:32;15.20;65.30
4312;DHT22;2169;49.086;9.284;2023-11-19T15:10:00;15.20;65.20
4312;DHT22;2169;49.086;9.284;2023-11-19T15:12:27;15.10;65.10
4312;DHT22;2169;49.086;9.284;2023-11-19T15:14:55;15.10;65.20
4312;DHT22;2169;49.086;9.284;2023-11-19T15:17:21;15.10;65.20
4312;DHT22;2169;49.086;9.284;2023-11-19T15:19:48;15.00;65.20
4312;DHT22;2169;49.086;9.284;2023-11-19T15:22:15;15.00;65.10
4312;DHT22;2169;49.086;9.284;2023-11-19T15:24:42;15.00;65.20
4312;DHT22;2169;49.086;9.284;2023-11-19T15:27:10;15.00;65.20
4312;DHT22;2169;49.086;9.284;2023-11-19T15:29:37;15.00;65.30
4312;DHT22;2169;49.086;9.284;2023-11-19T15:32:05;15.00;65.40
4312;DHT22;2169;49.086;9.284;2023-11-19T15:34:33;14.90;65.40
4312;DHT22;2169;49.086;9.284;2023-11-19T15:37:02;14.90;65.60
4312;DHT22;2169;49.086;9.284;2023-11-19T15:39:29;14.90;65.60
4312;DHT22;2169;49.086;9.284;2023-11-19T15:41:58;14.90;65.80
4312;DHT22;2169;49.086;9.284;2023-11-19T15:44:26;14.90;65.90
4312;DHT22;2169;49.086;9.284;2023-11-19T15:46:53;14.80;66.00
4312;DHT22;2169;49.086;9.284;2023-11-19T15:49:21;14.80;66.10
4312;DHT22;2169;49.086;9.284;2023-11-19T15:51:48;14.80;66.20
4312;DHT22;2169;49.086;9.284;2023-11-19T15:54:15;14.80;66.30
4312;DHT22;2169;49.086;9.284;2023-11-19T15:56:41;14.80;66.40
4312;DHT22;2169;49.086;9.284;2023-11-19T15:59:08;14.70;66.30
4312;DHT22;2169;49.086;9.284;2023-11-19T16:01:36;14.70;66.30
4312;DHT22;2169;49.086;9.284;2023-11-19T16:04:04;14.60;66.40
4312;DHT22;2169;49.086;9.284;2023-11-19T16:06:31;14.60;66.40
4312;DHT22;2169;49.086;9.284;2023-11-19T16:09:00;14.60;66.40
4312;DHT22;2169;49.086;9.284;2023-11-19T16:11:27;14.60;66.50
4312;DHT22;2169;49.086;9.284;2023-11-19T16:13:53;14.60;66.40